Time;durP1;ratioP1;P1;durP2;ratioP2;P2;SDS_P1;SDS_P2;PMS_P1;PMS_P2;Temp;Humidity;BMP_temperature;BMP_pressure;BME280_temperature;BME280_humidity;BME280_pressure;Samples;Min_cycle;Max_cycle;Signal;HPM_P1;HPM_P2
2023/11/30 00:01:58;;;;;;;2.45;1.55;;;21.60;52.80;;;;;;4968560;28;89979;-87
2023/11/30 00:04:24;;;;;;;3.50;1.80;;;21.60;52.90;;;;;;4968345;28;87880;-88
2023/11/30 00:06:49;;;;;;;2.88;1.85;;;21.60;53.00;;;;;;4966490;28;89261;-86
2023/11/30 00:09:15;;;;;;;2.83;1.42;;;21.60;53.00;;;;;;4986087;28;88819;-89
2023/11/30 00:11:40;;;;;;;2.63;1.50;;;21.50;53.00;;;;;;4968961;28;90340;-86
2023/11/30 00:14:07;;;;;;;1.80;1.48;;;21.50;52.90;;;;;;4966441;28;87657;-86
2023/11/30 00:16:32;;;;;;;2.78;1.52;;;21.50;53.20;;;;;;4986313;28;87809;-84
2023/11/30 00:18:58;;;;;;;3.72;1.50;;;21.50;53.00;;;;;;4967465;28;90548;-86
2023/11/30 00:21:23;;;;;;;2.00;1.40;;;21.50;53.10;;;;;;4966485;28;89373;-85
2023/11/30 00:23:49;;;;;;;2.55;1.40;;;21.40;53.00;;;;;;4986817;28;87800;-89
2023/11/30 00:26:15;;;;;;;2.08;1.30;;;21.40;53.10;;;;;;4967058;28;89544;-85
2023/11/30 00:28:41;;;;;;;2.75;1.60;;;21.40;53.20;;;;;;4967917;28;90738;-90
2023/11/30 00:31:07;;;;;;;2.75;1.83;;;21.40;53.10;;;;;;4969650;28;90668;-86
2023/11/30 00:33:33;;;;;;;1.65;1.38;;;21.30;53.30;;;;;;4968082;28;88868;-86
2023/11/30 00:35:59;;;;;;;2.97;1.50;;;21.30;53.20;;;;;;4967875;28;89578;-88
2023/11/30 00:38:24;;;;;;;1.88;1.40;;;21.30;53.20;;;;;;4966657;28;89709;-85
2023/11/30 00:40:50;;;;;;;2.88;1.80;;;21.30;53.10;;;;;;4967805;28;90788;-87
2023/11/30 00:43:16;;;;;;;3.53;1.17;;;21.30;53.20;;;;;;4968187;28;87255;-87
2023/11/30 00:45:43;;;;;;;2.28;1.27;;;21.30;53.30;;;;;;4985771;28;87717;-84
2023/11/30 00:48:09;;;;;;;2.40;1.60;;;21.20;53.30;;;;;;4985332;28;88072;-86
2023/11/30 00:50:34;;;;;;;2.95;1.48;;;21.20;53.10;;;;;;4986612;28;86773;-85
2023/11/30 00:53:00;;;;;;;1.27;1.17;;;21.20;53.20;;;;;;4967259;28;88147;-85
2023/11/30 00:55:26;;;;;;;1.58;1.23;;;21.20;53.20;;;;;;4983042;28;89546;-85
2023/11/30 00:57:52;;;;;;;3.70;1.80;;;21.20;53.30;;;;;;4969035;28;90015;-86
2023/11/30 01:00:17;;;;;;;1.75;1.20;;;21.20;53.30;;;;;;4988110;28;88727;-92
2023/11/30 01:02:43;;;;;;;2.63;1.40;;;21.10;53.20;;;;;;4989738;28;88104;-86
2023/11/30 01:05:09;;;;;;;1.58;1.38;;;21.10;53.30;;;;;;4987751;28;87574;-90
2023/11/30 01:07:38;;;;;;;2.08;1.60;;;21.10;53.20;;;;;;4970539;28;89526;-86
2023/11/30 01:10:04;;;;;;;2.85;1.58;;;21.10;53.20;;;;;;4987910;28;87417;-84
2023/11/30 01:12:30;;;;;;;5.07;1.77;;;21.10;53.30;;;;;;4969911;28;87829;-87
2023/11/30 01:14:56;;;;;;;2.25;1.55;;;21.10;53.40;;;;;;4969739;28;89941;-84
2023/11/30 01:17:22;;;;;;;4.15;1.80;;;21.10;53.20;;;;;;4990384;28;88700;-86
2023/11/30 01:19:48;;;;;;;1.85;1.25;;;21.00;53.10;;;;;;4989706;28;87528;-87
2023/11/30 01:22:14;;;;;;;2.60;1.70;;;21.00;53.30;;;;;;4970243;28;88369;-88
2023/11/30 01:24:40;;;;;;;1.88;1.20;;;21.00;53.20;;;;;;4969839;28;89556;-85
2023/11/30 01:27:06;;;;;;;2.10;1.50;;;21.00;53.40;;;;;;4969579;28;90493;-89
2023/11/30 01:29:32;;;;;;;2.60;1.55;;;21.00;53.40;;;;;;4990566;28;87939;-84
2023/11/30 01:31:57;;;;;;;2.33;1.42;;;21.00;53.40;;;;;;4989365;28;87506;-86
2023/11/30 01:34:23;;;;;;;3.80;1.67;;;20.90;53.20;;;;;;4971538;28;89544;-89
2023/11/30 01:36:49;;;;;;;1.35;1.23;;;20.90;53.30;;;;;;4969433;28;91963;-86
2023/11/30 01:39:15;;;;;;;1.95;1.10;;;20.90;53.40;;;;;;4988432;28;87786;-85
2023/11/30 01:41:41;;;;;;;1.50;1.08;;;20.90;53.30;;;;;;4988054;28;87805;-85
2023/11/30 01:44:08;;;;;;;2.42;1.73;;;20.90;53.30;;;;;;4988529;28;87708;-86
2023/11/30 01:46:36;;;;;;;2.28;1.40;;;20.80;53.30;;;;;;4986979;28;91394;-87
2023/11/30 01:49:03;;;;;;;2.53;1.55;;;20.80;53.30;;;;;;4970552;28;91002;-86
2023/11/30 01:51:35;;;;;;;2.22;1.45;;;20.80;53.40;;;;;;4970247;28;87438;-86
2023/11/30 01:54:01;;;;;;;2.08;1.30;;;20.80;53.40;;;;;;4969151;28;88364;-85
2023/11/30 01:56:28;;;;;;;2.38;1.40;;;20.80;53.40;;;;;;4969412;28;90233;-86
2023/11/30 01:58:54;;;;;;;1.65;1.35;;;20.80;53.40;;;;;;4985549;28;91432;-86
2023/11/30 02:01:21;;;;;;;2.08;1.80;;;20.80;53.40;;;;;;4987049;28;87768;-85
2023/11/30 02:03:47;;;;;;;2.10;1.40;;;20.70;53.30;;;;;;4990067;28;87327;-85
2023/11/30 02:06:18;;;;;;;2.97;1.58;;;20.70;53.40;;;;;;4952490;28;90077;-86
2023/11/30 02:08:47;;;;;;;2.42;1.73;;;20.70;53.30;;;;;;4989115;28;88054;-86
2023/11/30 02:11:13;;;;;;;2.00;1.10;;;20.70;53.30;;;;;;4988577;28;88303;-86
2023/11/30 02:13:39;;;;;;;1.63;1.23;;;20.70;53.20;;;;;;4987517;28;88083;-87
2023/11/30 02:16:05;;;;;;;1.40;1.20;;;20.70;53.30;;;;;;4988143;28;87726;-85
2023/11/30 02:18:31;;;;;;;2.58;1.38;;;20.60;53.20;;;;;;4970369;28;91584;-84
2023/11/30 02:20:57;;;;;;;2.00;1.30;;;20.60;53.30;;;;;;4970383;28;87357;-85
2023/11/30 02:23:22;;;;;;;2.42;1.23;;;20.60;53.30;;;;;;4971519;28;89348;-90
2023/11/30 02:25:48;;;;;;;1.50;1.40;;;20.60;53.30;;;;;;4988389;28;87431;-86
2023/11/30 02:28:20;;;;;;;2.38;1.40;;;20.60;53.40;;;;;;4968859;28;89922;-86
2023/11/30 02:30:46;;;;;;;2.90;1.65;;;20.60;53.80;;;;;;4987839;28;87416;-86
2023/11/30 02:33:13;;;;;;;1.63;1.33;;;20.60;53.80;;;;;;4988157;28;87782;-88
2023/11/30 02:35:39;;;;;;;2.20;1.33;;;20.50;53.70;;;;;;4970187;28;90563;-86
2023/11/30 02:38:04;;;;;;;1.83;1.33;;;20.60;53.80;;;;;;4988274;28;89317;-86
2023/11/30 02:40:30;;;;;;;1.80;1.30;;;20.50;53.80;;;;;;4968529;28;87654;-86
2023/11/30 02:42:56;;;;;;;1.83;1.40;;;20.50;53.80;;;;;;4987568;28;87670;-86
2023/11/30 02:45:21;;;;;;;2.15;1.25;;;20.50;53.90;;;;;;4969934;28;90556;-86
2023/11/30 02:47:47;;;;;;;1.45;1.20;;;20.50;53.90;;;;;;4988063;28;87579;-87
2023/11/30 02:50:13;;;;;;;1.70;1.20;;;20.50;53.80;;;;;;4969779;28;87713;-88
2023/11/30 02:52:38;;;;;;;1.90;1.50;;;20.50;53.80;;;;;;4987976;28;86992;-85
2023/11/30 02:55:04;;;;;;;2.20;1.45;;;20.50;53.80;;;;;;4984722;28;90309;-86
2023/11/30 02:57:30;;;;;;;1.70;1.30;;;20.50;53.80;;;;;;4968401;28;89818;-90
2023/11/30 02:59:56;;;;;;;1.52;1.42;;;20.50;53.90;;;;;;4969409;28;87917;-84
2023/11/30 03:02:21;;;;;;;1.35;1.05;;;20.40;53.90;;;;;;4988710;28;87760;-86
2023/11/30 03:04:47;;;;;;;1.80;1.40;;;20.40;53.90;;;;;;4969030;28;89222;-84
2023/11/30 03:07:12;;;;;;;1.67;1.40;;;20.40;53.90;;;;;;4968965;28;90334;-86
2023/11/30 03:09:38;;;;;;;1.50;1.30;;;20.40;53.80;;;;;;4986388;28;87002;-84
2023/11/30 03:12:04;;;;;;;1.70;1.60;;;20.40;54.00;;;;;;4986530;28;87974;-85
2023/11/30 03:14:30;;;;;;;2.15;1.30;;;20.40;53.80;;;;;;4987210;28;87611;-87
2023/11/30 03:16:56;;;;;;;2.17;1.58;;;20.40;53.80;;;;;;4986249;28;88438;-83
2023/11/30 03:19:22;;;;;;;2.42;1.50;;;20.40;54.00;;;;;;4966171;28;87736;-88
2023/11/30 03:21:52;;;;;;;3.55;1.63;;;20.40;53.90;;;;;;4986713;28;87656;-91
2023/11/30 03:24:21;;;;;;;1.60;1.20;;;20.30;53.90;;;;;;4966840;28;91350;-91
2023/11/30 03:26:46;;;;;;;1.42;1.20;;;20.40;53.90;;;;;;4968532;28;90953;-85
2023/11/30 03:29:12;;;;;;;1.27;1.00;;;20.30;53.90;;;;;;4968570;28;87281;-85
2023/11/30 03:31:37;;;;;;;1.77;1.08;;;20.30;53.80;;;;;;4969149;28;89095;-85
2023/11/30 03:34:03;;;;;;;2.00;1.40;;;20.30;53.90;;;;;;4969813;28;90616;-86
2023/11/30 03:36:29;;;;;;;1.30;1.20;;;20.30;53.80;;;;;;4986284;28;87227;-85
2023/11/30 03:38:55;;;;;;;1.83;1.35;;;20.30;53.90;;;;;;4987452;28;87347;-85
2023/11/30 03:41:24;;;;;;;1.52;1.08;;;20.30;53.80;;;;;;4969480;28;90318;-86
2023/11/30 03:43:49;;;;;;;1.75;1.30;;;20.30;53.90;;;;;;4986269;28;87995;-87
2023/11/30 03:46:21;;;;;;;1.65;1.35;;;20.20;54.50;;;;;;4969277;28;89310;-87
2023/11/30 03:48:46;;;;;;;1.27;1.17;;;20.20;53.90;;;;;;4987245;28;87833;-88
2023/11/30 03:51:12;;;;;;;1.30;1.20;;;20.20;53.90;;;;;;4985834;28;87405;-87
2023/11/30 03:53:38;;;;;;;1.38;1.15;;;20.20;53.90;;;;;;4988276;28;88211;-85
2023/11/30 03:56:04;;;;;;;2.38;1.38;;;20.20;53.80;;;;;;4968500;28;90297;-87
2023/11/30 03:58:29;;;;;;;1.70;1.30;;;20.20;53.90;;;;;;4987038;28;87260;-86
2023/11/30 04:00:55;;;;;;;1.63;1.38;;;20.20;53.90;;;;;;4967288;28;89099;-87
2023/11/30 04:03:21;;;;;;;1.35;1.25;;;20.20;54.10;;;;;;4966662;28;90620;-85
2023/11/30 04:05:46;;;;;;;1.85;1.50;;;20.20;53.90;;;;;;4967554;28;89712;-85
2023/11/30 04:08:12;;;;;;;1.40;1.20;;;20.20;53.90;;;;;;4969102;28;88231;-87
2023/11/30 04:10:38;;;;;;;1.77;1.40;;;20.20;53.90;;;;;;4968367;28;89160;-91
2023/11/30 04:13:03;;;;;;;1.55;1.25;;;20.20;53.80;;;;;;4966238;28;91623;-88
2023/11/30 04:15:29;;;;;;;2.60;1.20;;;20.10;53.80;;;;;;4983522;28;88924;-87
2023/11/30 04:17:55;;;;;;;1.42;1.30;;;20.10;53.80;;;;;;4986674;28;87962;-86
2023/11/30 04:20:21;;;;;;;2.10;1.52;;;20.10;54.00;;;;;;4985814;28;87508;-86
2023/11/30 04:22:47;;;;;;;2.05;1.30;;;20.10;53.90;;;;;;4968061;28;90285;-85
2023/11/30 04:25:13;;;;;;;1.67;1.30;;;20.10;53.90;;;;;;4984178;28;90193;-86
2023/11/30 04:27:38;;;;;;;1.58;1.30;;;20.10;54.00;;;;;;4968614;28;88724;-88
2023/11/30 04:30:04;;;;;;;1.67;1.48;;;20.10;53.90;;;;;;4986615;28;87384;-87
2023/11/30 04:32:30;;;;;;;1.77;1.27;;;20.10;54.10;;;;;;4970466;28;90486;-85
2023/11/30 04:34:56;;;;;;;1.70;1.42;;;20.10;53.90;;;;;;4971573;28;90634;-85
2023/11/30 04:37:21;;;;;;;2.22;1.10;;;20.00;54.00;;;;;;4988067;28;89050;-85
2023/11/30 04:39:47;;;;;;;1.17;0.98;;;20.10;53.90;;;;;;4988156;28;87958;-86
2023/11/30 04:42:13;;;;;;;1.40;1.20;;;20.00;53.90;;;;;;4988775;28;87438;-86
2023/11/30 04:44:39;;;;;;;1.38;1.27;;;20.00;54.00;;;;;;4989402;28;88303;-85
2023/11/30 04:47:05;;;;;;;1.50;1.20;;;20.00;54.00;;;;;;4988373;28;87636;-85
2023/11/30 04:49:30;;;;;;;1.92;1.40;;;20.00;54.00;;;;;;4969839;28;89420;-87
2023/11/30 04:51:56;;;;;;;1.65;1.20;;;20.00;54.00;;;;;;4988328;28;88210;-85
2023/11/30 04:54:21;;;;;;;1.83;1.25;;;20.00;54.00;;;;;;4971347;28;90699;-85
2023/11/30 04:56:47;;;;;;;2.00;1.45;;;20.00;53.80;;;;;;4988896;28;87331;-88
2023/11/30 04:59:13;;;;;;;1.35;1.20;;;20.00;53.90;;;;;;4988876;28;87706;-86
2023/11/30 05:01:38;;;;;;;1.55;1.30;;;20.00;53.80;;;;;;4969293;28;91432;-87
2023/11/30 05:04:04;;;;;;;1.55;1.20;;;19.90;53.80;;;;;;4988410;28;88274;-88
2023/11/30 05:06:30;;;;;;;1.70;1.30;;;19.90;53.70;;;;;;4988161;28;88047;-85
2023/11/30 05:08:56;;;;;;;2.03;1.33;;;19.90;53.90;;;;;;4989241;28;87781;-89
2023/11/30 05:11:22;;;;;;;1.67;1.23;;;20.00;53.90;;;;;;4990130;28;88095;-88
2023/11/30 05:13:48;;;;;;;1.95;1.33;;;19.90;53.90;;;;;;4987968;28;88002;-87
2023/11/30 05:16:14;;;;;;;2.47;1.45;;;19.90;54.00;;;;;;4970438;28;87155;-86
2023/11/30 05:18:40;;;;;;;1.85;1.40;;;19.90;53.90;;;;;;4970699;28;89481;-86
2023/11/30 05:21:06;;;;;;;1.95;1.20;;;19.90;54.00;;;;;;4969075;28;90627;-85
2023/11/30 05:23:32;;;;;;;1.25;1.15;;;19.90;54.00;;;;;;4970562;28;89111;-88
2023/11/30 05:25:57;;;;;;;1.40;1.30;;;19.90;54.00;;;;;;4987661;28;88371;-87
2023/11/30 05:28:23;;;;;;;1.75;1.20;;;19.90;53.90;;;;;;4987860;28;87817;-85
2023/11/30 05:30:49;;;;;;;1.77;1.48;;;19.90;53.90;;;;;;4968833;28;90975;-88
2023/11/30 05:33:15;;;;;;;2.00;1.30;;;19.80;53.90;;;;;;4969489;28;90139;-90
2023/11/30 05:35:41;;;;;;;1.23;1.10;;;19.90;53.90;;;;;;4987788;28;87627;-86
2023/11/30 05:38:07;;;;;;;1.35;1.25;;;19.90;53.90;;;;;;4988033;28;87296;-84
2023/11/30 05:40:32;;;;;;;1.77;1.33;;;19.80;53.80;;;;;;4969537;28;90626;-87
2023/11/30 05:42:58;;;;;;;2.15;1.02;;;19.80;53.90;;;;;;4969436;28;90326;-86
2023/11/30 05:45:23;;;;;;;2.15;1.52;;;19.80;53.80;;;;;;4988951;28;88564;-84
2023/11/30 05:47:49;;;;;;;1.80;1.30;;;19.80;53.90;;;;;;4988016;28;87047;-87
2023/11/30 05:50:15;;;;;;;2.78;1.63;;;19.80;53.90;;;;;;4968057;28;91524;-87
2023/11/30 05:52:40;;;;;;;1.38;1.10;;;19.80;54.00;;;;;;4988367;28;88206;-87
2023/11/30 05:55:10;;;;;;;1.05;0.95;;;19.80;53.90;;;;;;4969784;28;87868;-88
2023/11/30 05:57:36;;;;;;;1.42;1.30;;;19.80;53.90;;;;;;4968142;28;89477;-85
2023/11/30 06:00:03;;;;;;;2.00;1.42;;;19.80;53.90;;;;;;4968728;28;89396;-88
2023/11/30 06:02:29;;;;;;;3.40;1.25;;;19.80;54.00;;;;;;4971393;28;89466;-88
2023/11/30 06:04:55;;;;;;;2.58;1.58;;;19.70;53.90;;;;;;4970334;28;87311;-84
2023/11/30 06:07:23;;;;;;;1.50;1.23;;;19.70;53.80;;;;;;4987010;28;86975;-85
2023/11/30 06:09:49;;;;;;;2.05;1.23;;;19.70;53.90;;;;;;4968675;28;90860;-86
2023/11/30 06:12:14;;;;;;;1.30;1.20;;;19.70;53.90;;;;;;4969445;28;89371;-88
2023/11/30 06:14:40;;;;;;;1.10;1.00;;;19.70;53.80;;;;;;4987603;28;87952;-85
2023/11/30 06:17:06;;;;;;;1.42;1.27;;;19.70;53.80;;;;;;4968687;28;89624;-88
2023/11/30 06:19:32;;;;;;;1.70;1.10;;;19.70;54.50;;;;;;4988749;28;88156;-83
2023/11/30 06:22:00;;;;;;;2.38;1.35;;;19.70;53.80;;;;;;4990158;28;88509;-82
2023/11/30 06:24:26;;;;;;;1.63;1.45;;;19.70;53.70;;;;;;4991096;28;87974;-82
2023/11/30 06:26:53;;;;;;;2.47;1.20;;;19.70;53.80;;;;;;4972136;28;87361;-87
2023/11/30 06:29:19;;;;;;;1.20;1.10;;;19.70;53.90;;;;;;4988183;28;88580;-85
2023/11/30 06:31:45;;;;;;;1.45;1.20;;;19.70;54.00;;;;;;4988331;28;88116;-83
2023/11/30 06:34:11;;;;;;;1.10;1.00;;;19.70;54.40;;;;;;4970674;28;87221;-85
2023/11/30 06:36:36;;;;;;;1.27;1.10;;;19.70;54.10;;;;;;4987694;28;88680;-87
2023/11/30 06:39:03;;;;;;;1.30;1.20;;;19.80;54.30;;;;;;4986589;28;88846;-85
2023/11/30 06:41:28;;;;;;;2.78;1.42;;;19.80;54.50;;;;;;4970823;28;91442;-87
2023/11/30 06:43:54;;;;;;;2.67;1.10;;;19.80;54.30;;;;;;4970026;28;87528;-85
2023/11/30 06:46:24;;;;;;;2.78;1.20;;;19.80;54.40;;;;;;4968753;28;89561;-85
2023/11/30 06:48:50;;;;;;;2.00;1.10;;;19.90;54.30;;;;;;4969292;28;89820;-87
2023/11/30 06:51:16;;;;;;;1.42;1.13;;;19.90;53.90;;;;;;4972489;28;90557;-83
2023/11/30 06:53:42;;;;;;;1.48;0.90;;;19.90;53.70;;;;;;4992478;28;87796;-83
2023/11/30 06:56:13;;;;;;;4.20;1.25;;;20.00;53.60;;;;;;4992640;28;86969;-83
2023/11/30 06:58:40;;;;;;;1.85;1.00;;;20.00;53.80;;;;;;4992628;28;87917;-83
2023/11/30 07:01:09;;;;;;;1.80;1.20;;;20.10;53.70;;;;;;4974866;28;87911;-83
2023/11/30 07:03:35;;;;;;;1.25;0.90;;;20.10;53.80;;;;;;4976576;28;88602;-83
2023/11/30 07:06:01;;;;;;;2.55;1.00;;;20.10;53.80;;;;;;4990475;28;87350;-83
2023/11/30 07:08:27;;;;;;;1.27;0.90;;;20.20;53.90;;;;;;4975259;28;90422;-83
2023/11/30 07:10:52;;;;;;;1.55;1.25;;;20.20;53.90;;;;;;4990752;28;87766;-83
2023/11/30 07:13:18;;;;;;;2.25;1.08;;;20.20;53.70;;;;;;4991830;28;87400;-82
2023/11/30 07:15:44;;;;;;;1.25;1.00;;;20.20;53.50;;;;;;4973656;28;89434;-83
2023/11/30 07:18:13;;;;;;;0.93;0.90;;;20.20;53.40;;;;;;4993575;28;87866;-84
2023/11/30 07:20:42;;;;;;;1.63;1.20;;;20.30;53.50;;;;;;4974581;28;89402;-83
2023/11/30 07:23:10;;;;;;;2.73;1.40;;;20.30;53.40;;;;;;4992830;28;87605;-83
2023/11/30 07:25:36;;;;;;;1.25;0.93;;;20.30;53.50;;;;;;4991847;28;87383;-83
2023/11/30 07:28:02;;;;;;;3.10;1.10;;;20.40;53.30;;;;;;4988637;28;91533;-83
2023/11/30 07:30:29;;;;;;;1.83;1.10;;;20.30;53.10;;;;;;4973714;28;89457;-83
2023/11/30 07:32:55;;;;;;;1.10;1.00;;;20.30;53.10;;;;;;4992774;28;88137;-83
2023/11/30 07:35:21;;;;;;;2.67;1.13;;;20.40;53.20;;;;;;4992118;28;87125;-83
2023/11/30 07:37:47;;;;;;;1.75;1.17;;;20.40;53.20;;;;;;4971847;28;89982;-84
2023/11/30 07:40:12;;;;;;;1.60;1.20;;;20.30;53.00;;;;;;4973649;28;89401;-84
2023/11/30 07:42:38;;;;;;;1.25;0.90;;;20.40;53.10;;;;;;4972825;28;87372;-84
2023/11/30 07:45:09;;;;;;;1.52;1.00;;;20.40;53.20;;;;;;4991599;28;87482;-83
2023/11/30 07:47:34;;;;;;;1.20;0.90;;;20.40;53.30;;;;;;4974830;28;90128;-84
2023/11/30 07:50:00;;;;;;;2.08;1.17;;;20.40;53.20;;;;;;4988892;28;87550;-88
2023/11/30 07:52:26;;;;;;;1.65;1.13;;;20.40;53.00;;;;;;4978487;28;88020;-84
2023/11/30 07:54:52;;;;;;;1.38;0.90;;;20.50;53.10;;;;;;4988109;28;87980;-84
2023/11/30 07:57:21;;;;;;;1.95;1.27;;;20.50;53.00;;;;;;4970667;28;88376;-84
2023/11/30 07:59:47;;;;;;;1.27;1.00;;;20.50;53.00;;;;;;4971390;28;88325;-83
2023/11/30 08:02:13;;;;;;;1.20;1.10;;;20.60;53.10;;;;;;4968496;28;87428;-87
2023/11/30 08:04:39;;;;;;;2.70;1.13;;;20.50;52.90;;;;;;4964590;28;89325;-87
2023/11/30 08:07:05;;;;;;;2.28;1.02;;;20.60;52.90;;;;;;4968197;28;90361;-87
2023/11/30 08:09:31;;;;;;;1.83;1.20;;;20.60;52.80;;;;;;4988275;28;87805;-86
2023/11/30 08:11:56;;;;;;;1.17;0.80;;;20.60;52.80;;;;;;4970756;28;87488;-89
2023/11/30 08:14:22;;;;;;;1.55;1.38;;;20.60;52.90;;;;;;4967980;28;88973;-85
2023/11/30 08:16:47;;;;;;;1.80;1.00;;;20.60;52.90;;;;;;4968624;28;90506;-87
2023/11/30 08:19:13;;;;;;;2.35;1.08;;;20.60;52.80;;;;;;4968229;28;90610;-86
2023/11/30 08:21:40;;;;;;;2.58;0.90;;;20.60;52.80;;;;;;4968686;28;87874;-88
2023/11/30 08:24:08;;;;;;;1.42;1.20;;;20.60;53.10;;;;;;4969245;28;89696;-85
2023/11/30 08:26:34;;;;;;;1.45;1.25;;;20.60;53.20;;;;;;4968251;28;89885;-86
2023/11/30 08:28:59;;;;;;;1.17;1.00;;;20.60;53.30;;;;;;4968300;28;89101;-88
2023/11/30 08:31:25;;;;;;;1.27;1.10;;;20.50;53.40;;;;;;4970292;28;88109;-86
2023/11/30 08:33:51;;;;;;;1.55;0.93;;;20.60;53.70;;;;;;4987826;28;86840;-89
2023/11/30 08:36:16;;;;;;;1.10;0.98;;;20.50;53.70;;;;;;4968837;28;89535;-87
2023/11/30 08:38:42;;;;;;;1.65;0.85;;;20.60;53.80;;;;;;4969228;28;89874;-86
2023/11/30 08:41:08;;;;;;;2.53;1.10;;;20.60;54.00;;;;;;4969197;28;88658;-86
2023/11/30 08:43:34;;;;;;;1.35;0.93;;;20.70;53.90;;;;;;4968819;28;89664;-87
2023/11/30 08:45:59;;;;;;;1.05;1.00;;;20.70;53.80;;;;;;4967745;28;90514;-90
2023/11/30 08:48:25;;;;;;;1.70;0.90;;;20.70;53.70;;;;;;4970828;28;89280;-86
2023/11/30 08:50:51;;;;;;;1.23;1.10;;;20.70;53.60;;;;;;4968854;28;87619;-89
2023/11/30 08:53:17;;;;;;;3.72;1.58;;;20.70;53.50;;;;;;4986294;28;87584;-86
2023/11/30 08:55:45;;;;;;;7.90;2.50;;;20.70;53.10;;;;;;4985940;28;87966;-84
2023/11/30 08:58:12;;;;;;;11.30;3.10;;;20.70;52.90;;;;;;4987788;28;87317;-86
2023/11/30 09:00:39;;;;;;;18.85;2.20;;;20.80;52.80;;;;;;4969257;28;87404;-86
2023/11/30 09:03:06;;;;;;;7.03;2.08;;;20.80;52.70;;;;;;4966414;28;89507;-86
2023/11/30 09:05:31;;;;;;;7.45;2.20;;;20.80;52.90;;;;;;4965978;28;91627;-88
2023/11/30 09:07:57;;;;;;;2.33;1.50;;;20.80;53.00;;;;;;4985076;28;88572;-86
2023/11/30 09:10:23;;;;;;;6.38;2.28;;;20.80;53.10;;;;;;4986375;28;87606;-86
2023/11/30 09:12:48;;;;;;;5.53;2.15;;;20.80;53.30;;;;;;4969557;28;89831;-87
2023/11/30 09:15:14;;;;;;;3.88;2.03;;;20.80;53.30;;;;;;4986891;28;87483;-87
2023/11/30 09:17:40;;;;;;;10.80;2.88;;;20.80;53.60;;;;;;4970075;28;90087;-86
2023/11/30 09:20:08;;;;;;;7.38;2.75;;;20.80;52.70;;;;;;4969547;28;88349;-86
2023/11/30 09:22:37;;;;;;;9.65;3.30;;;20.80;52.80;;;;;;4970736;28;89299;-88
2023/11/30 09:25:03;;;;;;;6.07;2.53;;;20.80;53.10;;;;;;4973267;28;90467;-87
2023/11/30 09:27:29;;;;;;;13.50;3.53;;;20.90;53.20;;;;;;4988495;28;89538;-87
2023/11/30 09:29:55;;;;;;;13.75;4.00;;;20.90;52.60;;;;;;4968078;28;88185;-85
2023/11/30 09:32:22;;;;;;;10.63;2.92;;;20.90;52.40;;;;;;4969380;28;89464;-90
2023/11/30 09:34:48;;;;;;;6.72;2.75;;;20.90;52.60;;;;;;4988311;28;87678;-87
2023/11/30 09:37:14;;;;;;;9.60;2.72;;;20.90;52.70;;;;;;4968181;28;90221;-88
2023/11/30 09:39:40;;;;;;;8.60;3.28;;;20.90;52.80;;;;;;4969555;28;87273;-86
2023/11/30 09:42:06;;;;;;;9.88;2.67;;;20.90;52.90;;;;;;4969467;28;89382;-87
2023/11/30 09:44:33;;;;;;;13.80;3.17;;;20.90;52.90;;;;;;4969851;28;90498;-87
2023/11/30 09:46:59;;;;;;;6.47;2.97;;;20.90;52.90;;;;;;4969303;28;90482;-89
2023/11/30 09:49:25;;;;;;;7.90;2.58;;;20.90;53.00;;;;;;4968360;28;88077;-86
2023/11/30 09:51:52;;;;;;;8.90;2.67;;;20.90;52.80;;;;;;4969341;28;89204;-86
2023/11/30 09:54:22;;;;;;;7.82;2.85;;;21.00;52.90;;;;;;4986482;28;89855;-87
2023/11/30 09:56:48;;;;;;;10.30;3.42;;;21.00;52.90;;;;;;4969403;28;90486;-87
2023/11/30 09:59:14;;;;;;;5.13;2.45;;;21.00;52.90;;;;;;4954458;28;87584;-87
2023/11/30 10:01:40;;;;;;;6.68;2.55;;;21.00;52.90;;;;;;4970416;28;89764;-88
2023/11/30 10:04:13;;;;;;;8.18;2.58;;;21.00;52.90;;;;;;4970513;28;88682;-86
2023/11/30 10:06:39;;;;;;;5.88;2.58;;;21.00;52.70;;;;;;4969971;28;90045;-87
2023/11/30 10:09:04;;;;;;;7.82;2.60;;;21.00;52.80;;;;;;4970759;28;87864;-88
2023/11/30 10:11:30;;;;;;;4.95;2.40;;;21.00;52.60;;;;;;4972271;28;89103;-86
2023/11/30 10:13:56;;;;;;;8.00;3.08;;;21.00;52.70;;;;;;4969922;28;89287;-89
2023/11/30 10:16:22;;;;;;;5.15;2.60;;;21.00;52.70;;;;;;4989245;28;87898;-87
2023/11/30 10:18:47;;;;;;;8.73;2.60;;;21.00;52.60;;;;;;4969167;28;88655;-87
2023/11/30 10:21:13;;;;;;;5.53;2.60;;;21.00;52.60;;;;;;4969406;28;88521;-88
2023/11/30 10:23:39;;;;;;;6.10;2.65;;;21.00;52.60;;;;;;4971736;28;91060;-88
2023/11/30 10:26:06;;;;;;;7.22;2.80;;;21.00;52.40;;;;;;4969082;28;90035;-88
2023/11/30 10:28:32;;;;;;;8.75;2.40;;;21.00;52.60;;;;;;4986424;28;87612;-87
2023/11/30 10:31:02;;;;;;;4.65;2.40;;;21.00;52.60;;;;;;4969823;28;89776;-86
2023/11/30 10:33:28;;;;;;;6.55;2.42;;;21.00;52.70;;;;;;4988770;28;87300;-86
2023/11/30 10:35:57;;;;;;;4.55;1.98;;;21.10;52.70;;;;;;4970788;28;89393;-87
2023/11/30 10:38:28;;;;;;;8.20;2.60;;;21.10;52.70;;;;;;4970065;28;87812;-88
2023/11/30 10:41:10;;;;;;;7.60;2.30;;;21.10;52.70;;;;;;4969207;28;89945;-90
2023/11/30 10:43:40;;;;;;;6.85;2.40;;;21.10;52.60;;;;;;4985419;28;91409;-88
2023/11/30 10:46:07;;;;;;;6.05;2.42;;;21.10;52.70;;;;;;4988091;28;88282;-88
2023/11/30 10:48:36;;;;;;;6.60;2.63;;;21.10;52.60;;;;;;4988212;28;87554;-88
2023/11/30 10:51:04;;;;;;;6.00;2.50;;;21.10;52.40;;;;;;4988141;28;87901;-88
2023/11/30 10:53:51;;;;;;;4.95;2.53;;;21.00;52.40;;;;;;4988406;28;87251;-88
2023/11/30 10:56:17;;;;;;;6.30;2.47;;;21.00;52.50;;;;;;4987049;28;92584;-86
2023/11/30 10:58:44;;;;;;;5.63;2.60;;;21.00;52.40;;;;;;4968763;28;87814;-87
2023/11/30 11:01:11;;;;;;;4.93;2.95;;;21.00;52.30;;;;;;4967235;28;89233;-88
2023/11/30 11:03:47;;;;;;;5.60;2.70;;;21.10;51.40;;;;;;4967736;28;91772;-86
2023/11/30 11:06:15;;;;;;;6.80;2.95;;;21.00;51.80;;;;;;4968547;28;90572;-87
2023/11/30 11:08:58;;;;;;;5.72;2.53;;;21.10;51.90;;;;;;4969270;28;88225;-85
2023/11/30 11:11:29;;;;;;;6.45;2.85;;;21.10;51.60;;;;;;4970792;28;94591;-86
2023/11/30 11:13:55;;;;;;;6.45;2.47;;;21.10;51.90;;;;;;4970106;28;90787;-87
2023/11/30 11:16:33;;;;;;;6.47;2.28;;;21.10;52.10;;;;;;4970598;28;89675;-85
2023/11/30 11:19:02;;;;;;;4.60;2.30;;;21.10;52.20;;;;;;4971878;28;87362;-85
2023/11/30 11:21:29;;;;;;;7.32;2.75;;;21.10;52.20;;;;;;4971299;28;88896;-87
2023/11/30 11:24:05;;;;;;;5.50;2.53;;;21.10;52.40;;;;;;4990114;28;87557;-84
2023/11/30 11:26:48;;;;;;;7.45;3.08;;;21.10;52.40;;;;;;4989268;28;87039;-87
2023/11/30 11:29:15;;;;;;;4.65;2.85;;;21.10;52.30;;;;;;4973081;28;87904;-84
2023/11/30 11:31:42;;;;;;;7.18;2.97;;;21.10;52.10;;;;;;4969766;28;88592;-86
2023/11/30 11:34:09;;;;;;;8.88;2.65;;;21.10;52.30;;;;;;4969556;28;92153;-86
2023/11/30 11:36:36;;;;;;;5.68;2.63;;;21.10;52.50;;;;;;4969465;28;90003;-85
2023/11/30 11:39:02;;;;;;;5.40;2.45;;;21.10;52.70;;;;;;4961230;28;87876;-86
2023/11/30 11:41:28;;;;;;;5.97;3.38;;;21.10;52.70;;;;;;4982154;28;87611;-89
2023/11/30 11:43:54;;;;;;;6.90;2.85;;;21.10;51.70;;;;;;4985320;28;87993;-87
2023/11/30 11:46:19;;;;;;;7.18;3.42;;;21.10;52.00;;;;;;4966541;28;89570;-87
2023/11/30 11:48:46;;;;;;;5.75;2.97;;;21.10;52.30;;;;;;4968827;28;87960;-89
2023/11/30 11:51:12;;;;;;;6.43;2.55;;;21.10;51.30;;;;;;4968572;28;89463;-86
2023/11/30 11:53:41;;;;;;;7.07;3.00;;;21.10;51.80;;;;;;4968998;28;90826;-87
2023/11/30 11:56:07;;;;;;;6.80;2.40;;;21.10;51.80;;;;;;4984850;28;88043;-88
2023/11/30 11:58:35;;;;;;;4.78;1.95;;;21.10;51.90;;;;;;4967370;28;88417;-87
2023/11/30 12:01:01;;;;;;;6.50;2.90;;;21.10;52.40;;;;;;4969378;28;88802;-89
2023/11/30 12:03:27;;;;;;;7.70;3.03;;;21.10;52.30;;;;;;4968265;28;90429;-88
2023/11/30 12:05:52;;;;;;;5.63;3.10;;;21.10;52.10;;;;;;4988353;28;87564;-84
2023/11/30 12:08:34;;;;;;;6.45;2.47;;;21.10;52.50;;;;;;4971437;28;86997;-87
2023/11/30 12:11:00;;;;;;;10.07;2.78;;;21.10;52.50;;;;;;4985818;28;87783;-87
2023/11/30 12:13:26;;;;;;;5.07;2.55;;;21.20;63.00;;;;;;4967036;28;89204;-87
2023/11/30 12:15:53;;;;;;;4.80;2.80;;;21.50;53.30;;;;;;4948913;28;90210;-87
2023/11/30 12:18:20;;;;;;;4.72;2.97;;;21.60;51.70;;;;;;4959564;28;86969;-86
2023/11/30 12:20:47;;;;;;;9.20;2.42;;;21.60;51.60;;;;;;4967790;28;88132;-86
2023/11/30 12:23:13;;;;;;;5.65;2.65;;;21.60;51.40;;;;;;4988466;28;93466;-90
2023/11/30 12:25:39;;;;;;;6.03;2.83;;;21.70;51.60;;;;;;4989247;28;88235;-88
2023/11/30 12:28:05;;;;;;;5.15;2.45;;;21.60;51.60;;;;;;4970859;28;87084;-90
2023/11/30 12:30:30;;;;;;;4.85;2.60;;;21.60;51.70;;;;;;4953328;28;89345;-86
2023/11/30 12:32:56;;;;;;;5.35;2.38;;;21.60;51.70;;;;;;4968520;28;90428;-88
2023/11/30 12:35:22;;;;;;;6.18;2.50;;;21.60;50.80;;;;;;4968581;28;89273;-88
2023/11/30 12:37:48;;;;;;;5.75;3.03;;;21.60;51.30;;;;;;4986290;28;87922;-89
2023/11/30 12:40:14;;;;;;;7.25;2.65;;;21.50;51.70;;;;;;4968453;28;88402;-88
2023/11/30 12:42:43;;;;;;;4.53;2.42;;;21.60;51.80;;;;;;4968495;28;90518;-88
2023/11/30 12:45:09;;;;;;;;;;;21.60;51.90;;;;;;4967531;28;90370;-88